Time;durP1;ratioP1;P1;durP2;ratioP2;P2;SDS_P1;SDS_P2;PMS_P1;PMS_P2;Temp;Humidity;BMP_temperature;BMP_pressure;BME280_temperature;BME280_humidity;BME280_pressure;Samples;Min_cycle;Max_cycle;Signal;HPM_P1;HPM_P2
2023/02/20 00:02:33;;;;;;;1.70;0.93;;;;;;;3.96;65.92;100492.25;6373557;27;20043;-77
2023/02/20 00:05:34;;;;;;;1.20;0.90;;;;;;;4.02;67.07;100492.06;6372012;27;20035;-77
2023/02/20 00:08:40;;;;;;;0.75;0.55;;;;;;;4.08;65.92;100506.56;6372179;27;20084;-77
2023/02/20 00:11:41;;;;;;;1.75;0.68;;;;;;;4.20;67.71;100508.81;6372177;27;20114;-77
2023/02/20 00:14:44;;;;;;;0.90;0.80;;;;;;;4.11;67.02;100501.31;6373076;27;20043;-77
2023/02/20 00:17:48;;;;;;;3.35;1.38;;;;;;;4.15;68.68;100502.91;6372021;27;20495;-77
2023/02/20 00:20:49;;;;;;;2.08;1.25;;;;;;;4.18;66.16;100514.88;6371856;27;20046;-77
2023/02/20 00:23:49;;;;;;;0.95;0.68;;;;;;;4.17;65.66;100526.13;6371793;27;20043;-77
2023/02/20 00:26:52;;;;;;;0.98;0.65;;;;;;;4.23;64.80;100538.88;6372825;27;20035;-77
2023/02/20 00:29:53;;;;;;;2.10;1.05;;;;;;;4.28;66.04;100524.09;6373068;27;20144;-77
2023/02/20 00:32:55;;;;;;;2.63;1.50;;;;;;;4.32;67.70;100530.03;6371558;27;20100;-77
2023/02/20 00:35:56;;;;;;;1.10;1.00;;;;;;;4.16;64.35;100542.50;6372455;27;20456;-77
2023/02/20 00:38:57;;;;;;;1.20;1.05;;;;;;;4.27;66.94;100547.41;6372729;27;20103;-77
2023/02/20 00:41:58;;;;;;;3.28;0.82;;;;;;;4.19;68.07;100530.34;6372870;27;20035;-77
2023/02/20 00:44:58;;;;;;;1.90;1.00;;;;;;;4.15;66.19;100540.81;6372428;27;20061;-77
2023/02/20 00:47:59;;;;;;;3.78;1.42;;;;;;;4.16;68.17;100539.91;6372267;27;20039;-77
2023/02/20 00:51:02;;;;;;;3.03;1.70;;;;;;;4.09;67.78;100535.81;6372425;27;20039;-77
2023/02/20 00:54:03;;;;;;;1.42;1.13;;;;;;;4.18;69.51;100528.69;6371044;27;20062;-77
2023/02/20 00:57:04;;;;;;;1.88;1.45;;;;;;;4.06;68.03;100521.25;6371036;27;20047;-77
2023/02/20 01:00:09;;;;;;;2.33;1.38;;;;;;;4.12;69.14;100521.09;6346977;27;20039;-77
2023/02/20 01:03:11;;;;;;;1.42;1.13;;;;;;;4.00;68.34;100522.25;6346595;28;20449;-77
2023/02/20 01:06:13;;;;;;;2.17;1.42;;;;;;;4.00;68.27;100516.25;6345214;28;20067;-77
2023/02/20 01:09:14;;;;;;;1.73;1.08;;;;;;;4.08;67.42;100516.91;6346416;28;20111;-77
2023/02/20 01:12:16;;;;;;;0.75;0.75;;;;;;;4.05;65.39;100516.97;6345128;28;20475;-77
2023/02/20 01:15:17;;;;;;;1.13;1.00;;;;;;;4.09;67.31;100533.22;6344551;28;20036;-77
2023/02/20 01:18:18;;;;;;;1.65;1.00;;;;;;;4.10;67.99;100528.03;6346230;28;20288;-77
2023/02/20 01:21:25;;;;;;;1.02;1.00;;;;;;;4.19;68.33;100545.00;6344952;28;20059;-77
2023/02/20 01:24:26;;;;;;;2.85;1.08;;;;;;;4.25;66.22;100531.94;6344787;28;20035;-77
2023/02/20 01:27:27;;;;;;;3.10;1.25;;;;;;;4.23;68.41;100534.56;6344763;28;20091;-77
2023/02/20 01:30:32;;;;;;;4.63;0.85;;;;;;;4.23;67.28;100539.72;6344947;28;20463;-77
2023/02/20 01:33:33;;;;;;;1.73;1.25;;;;;;;4.16;66.61;100538.19;6345829;28;20088;-77
2023/02/20 01:36:34;;;;;;;1.33;1.02;;;;;;;4.21;68.36;100538.91;6345697;28;20071;-77
2023/02/20 01:39:35;;;;;;;3.10;1.63;;;;;;;4.13;68.95;100548.59;6345757;28;20378;-77
2023/02/20 01:42:35;;;;;;;5.95;1.98;;;;;;;4.21;69.07;100546.66;6344726;28;20494;-77
2023/02/20 01:45:38;;;;;;;2.90;1.60;;;;;;;4.15;69.74;100549.41;6345664;28;20039;-77
2023/02/20 01:48:39;;;;;;;1.30;1.20;;;;;;;4.11;67.75;100542.63;6344610;28;20040;-77
2023/02/20 01:51:46;;;;;;;1.63;1.27;;;;;;;4.12;69.13;100553.78;6344557;28;20039;-77
2023/02/20 01:54:56;;;;;;;2.78;1.42;;;;;;;4.14;68.62;100560.63;6344552;28;20046;-77
2023/02/20 01:58:18;;;;;;;1.73;0.90;;;;;;;4.04;68.61;100548.84;6344872;27;20514;-77
2023/02/20 02:01:19;;;;;;;1.00;0.83;;;;;;;4.09;67.66;100554.72;6345538;28;20402;-77
2023/02/20 02:04:20;;;;;;;2.55;1.35;;;;;;;4.13;69.46;100558.94;6343816;28;20104;-77
2023/02/20 02:07:22;;;;;;;1.00;0.65;;;;;;;4.17;72.11;100550.22;6344219;28;20036;-77
2023/02/20 02:10:31;;;;;;;1.65;0.98;;;;;;;4.19;72.28;100556.19;6345452;28;20046;-77
2023/02/20 02:13:34;;;;;;;13.65;1.35;;;;;;;4.16;71.89;100556.28;6345413;28;20492;-77
2023/02/20 02:17:01;;;;;;;2.45;1.25;;;;;;;4.24;71.31;100569.84;6344276;28;20126;-77
2023/02/20 02:20:20;;;;;;;1.45;1.30;;;;;;;4.26;70.38;100579.28;6345507;28;20411;-77
2023/02/20 02:23:53;;;;;;;3.78;1.45;;;;;;;4.28;71.83;100583.50;6344143;28;20040;-77
2023/02/20 02:27:39;;;;;;;1.35;1.02;;;;;;;4.28;71.35;100588.66;6344820;28;20039;-77
2023/02/20 02:30:52;;;;;;;1.67;1.23;;;;;;;4.24;70.33;100584.47;6342835;27;20127;-77
2023/02/20 02:34:15;;;;;;;1.13;1.02;;;;;;;4.27;71.92;100588.72;6374867;27;20058;-77
2023/02/20 02:37:29;;;;;;;2.53;1.77;;;;;;;4.24;73.76;100585.34;6348650;28;20108;-77
2023/02/20 02:40:38;;;;;;;2.03;1.13;;;;;;;4.20;72.58;100594.06;6347997;28;20039;-77
2023/02/20 02:43:52;;;;;;;2.60;1.50;;;;;;;4.19;74.98;100597.50;6348230;28;20039;-77
2023/02/20 02:47:16;;;;;;;6.40;1.55;;;;;;;4.16;73.92;100591.56;6348863;28;20040;-77
2023/02/20 02:50:39;;;;;;;3.20;1.58;;;;;;;4.20;72.25;100591.47;6348360;28;20046;-77
2023/02/20 02:53:40;;;;;;;3.83;2.13;;;;;;;4.16;71.54;100591.56;6348560;28;20116;-77
2023/02/20 02:56:45;;;;;;;2.97;2.00;;;;;;;4.14;71.64;100588.19;6348315;28;20496;-77
2023/02/20 02:59:50;;;;;;;3.67;1.80;;;;;;;4.06;72.18;100585.81;6349555;28;20062;-77
2023/02/20 03:03:09;;;;;;;3.40;1.63;;;;;;;4.12;72.35;100593.41;6348667;28;20036;-77
2023/02/20 03:06:21;;;;;;;2.70;1.73;;;;;;;4.09;75.28;100595.22;6349221;28;20153;-77
2023/02/20 03:09:28;;;;;;;4.03;1.98;;;;;;;4.11;73.72;100601.19;6349166;28;20043;-77
2023/02/20 03:12:32;;;;;;;2.95;1.35;;;;;;;4.17;72.26;100614.78;6349083;28;20082;-77
2023/02/20 03:15:40;;;;;;;8.00;4.00;;;;;;;4.14;73.78;100614.00;6347120;28;20048;-77
2023/02/20 03:18:45;;;;;;;5.75;1.63;;;;;;;4.10;74.21;100622.72;6347275;28;20055;-77
2023/02/20 03:21:47;;;;;;;4.28;1.45;;;;;;;4.17;73.98;100616.53;6348629;28;20538;-77
2023/02/20 03:24:55;;;;;;;;;;;;;;;4.19;74.99;100618.19;6347314;28;20039;-77
2023/02/20 03:28:08;;;;;;;14.98;3.53;;;;;;;4.14;76.63;100619.16;6348407;28;19926;-77
2023/02/20 03:31:13;;;;;;;4.28;1.95;;;;;;;4.09;75.66;100637.38;6348856;28;20036;-77
2023/02/20 03:44:27;;;;;;;4.95;3.10;;;;;;;3.99;75.57;100654.81;6348419;28;20067;-76
2023/02/20 03:47:29;;;;;;;3.25;1.67;;;;;;;3.95;74.84;100648.03;6346994;28;20039;-77
2023/02/20 03:53:50;;;;;;;1.75;1.27;;;;;;;4.00;78.05;100660.84;6348211;28;19954;-77
2023/02/20 03:56:56;;;;;;;2.53;1.63;;;;;;;4.00;77.86;100666.88;6348476;27;20537;-77
2023/02/20 04:00:04;;;;;;;4.00;1.77;;;;;;;3.99;77.77;100656.56;6348554;27;20333;-77
2023/02/20 04:03:18;;;;;;;1.30;1.20;;;;;;;3.96;77.62;100672.97;6373529;27;20039;-77
2023/02/20 04:06:22;;;;;;;1.55;1.25;;;;;;;3.93;75.18;100659.28;6359518;27;20067;-77
2023/02/20 04:09:28;;;;;;;1.90;1.13;;;;;;;3.87;76.83;100651.69;6347679;28;20042;-77
2023/02/20 04:12:35;;;;;;;1.77;0.98;;;;;;;3.87;77.40;100652.56;6347727;28;20084;-77
2023/02/20 04:15:36;;;;;;;0.98;0.90;;;;;;;3.77;76.64;100648.50;6347729;28;20040;-77
2023/02/20 04:18:37;;;;;;;2.95;1.33;;;;;;;3.76;75.75;100646.78;6346399;28;20488;-77
2023/02/20 04:21:42;;;;;;;2.85;1.83;;;;;;;3.75;75.62;100648.53;6349035;27;20038;-78
2023/02/20 04:24:49;;;;;;;1.20;1.10;;;;;;;3.71;77.44;100638.31;6347364;28;20119;-78
2023/02/20 04:27:50;;;;;;;1.88;1.30;;;;;;;3.69;76.79;100633.19;6371580;27;20506;-78
2023/02/20 04:30:52;;;;;;;2.03;1.23;;;;;;;3.66;77.93;100648.72;6371746;27;20039;-77
2023/02/20 04:33:55;;;;;;;2.87;1.47;;;;;;;3.63;78.06;100651.38;6372786;27;20139;-77
2023/02/20 04:37:11;;;;;;;4.63;1.48;;;;;;;3.60;79.23;100648.88;6369154;27;20509;-77
2023/02/20 04:40:15;;;;;;;3.55;1.58;;;;;;;3.68;78.95;100651.28;6368753;27;20407;-77
2023/02/20 04:43:18;;;;;;;2.22;1.40;;;;;;;3.60;80.22;100647.16;6368622;27;20164;-78
2023/02/20 04:46:22;;;;;;;5.55;2.38;;;;;;;3.54;81.02;100644.72;6367439;27;20048;-77
2023/02/20 04:49:23;;;;;;;4.47;1.55;;;;;;;3.38;80.36;100654.53;6366490;27;20038;-78
2023/02/20 04:52:23;;;;;;;2.40;1.58;;;;;;;3.32;81.62;100659.81;6364183;27;20031;-73
2023/02/20 04:55:25;;;;;;;1.17;1.08;;;;;;;3.27;81.09;100661.63;6375398;27;20091;-74
2023/02/20 04:58:25;;;;;;;3.25;1.13;;;;;;;3.19;81.91;100664.38;6365793;27;20103;-73
2023/02/20 05:01:28;;;;;;;6.80;1.33;;;;;;;3.16;82.72;100669.59;6359195;27;20031;-72
2023/02/20 05:04:30;;;;;;;2.70;1.83;;;;;;;3.17;82.57;100675.59;6367223;27;20035;-72
2023/02/20 05:07:31;;;;;;;4.22;1.33;;;;;;;3.16;82.89;100674.75;6347205;27;20196;-72
2023/02/20 05:10:33;;;;;;;2.08;1.38;;;;;;;3.19;82.91;100673.81;6348578;27;20451;-72
2023/02/20 05:13:34;;;;;;;1.13;0.90;;;;;;;3.14;84.72;100673.09;6355802;27;20043;-72
2023/02/20 05:16:41;;;;;;;2.17;1.35;;;;;;;3.17;85.54;100685.91;6356138;27;20092;-72
2023/02/20 05:19:42;;;;;;;5.75;1.25;;;;;;;3.17;87.10;100689.34;6371687;27;20078;-73
2023/02/20 05:22:47;;;;;;;1.33;1.00;;;;;;;3.15;89.66;100677.34;6370533;27;20051;-73
2023/02/20 05:25:50;;;;;;;1.45;1.30;;;;;;;3.14;90.89;100680.81;6370437;27;20066;-73
2023/02/20 05:28:53;;;;;;;2.45;1.40;;;;;;;3.01;92.39;100678.50;6370282;27;20046;-73
2023/02/20 05:31:54;;;;;;;1.80;1.23;;;;;;;2.98;94.14;100685.44;6370530;27;20035;-72
2023/02/20 05:34:56;;;;;;;1.63;1.48;;;;;;;2.94;94.84;100684.63;6371296;27;20456;-71
2023/02/20 05:37:56;;;;;;;1.88;1.67;;;;;;;3.00;94.74;100681.09;6370229;27;20045;-72
2023/02/20 05:40:57;;;;;;;1.55;1.15;;;;;;;3.07;94.56;100695.56;6359917;28;20410;-72
2023/02/20 05:43:58;;;;;;;1.90;1.30;;;;;;;3.04;95.50;100698.19;6362009;28;20046;-72
2023/02/20 05:47:00;;;;;;;1.90;1.42;;;;;;;3.03;96.12;100702.50;6345792;28;20035;-72
2023/02/20 05:50:00;;;;;;;5.13;2.20;;;;;;;3.06;97.20;100695.59;6345749;28;20422;-72
2023/02/20 05:53:01;;;;;;;3.00;1.13;;;;;;;3.09;96.82;100693.81;6345665;28;20050;-72
2023/02/20 05:56:02;;;;;;;1.77;1.08;;;;;;;3.10;97.67;100708.41;6344545;28;20032;-72
2023/02/20 05:59:03;;;;;;;4.15;2.20;;;;;;;3.19;97.67;100704.78;6344390;28;20055;-72
2023/02/20 06:02:04;;;;;;;2.05;1.33;;;;;;;3.14;98.19;100701.47;6353778;27;20059;-72
2023/02/20 06:05:06;;;;;;;2.78;2.03;;;;;;;3.22;98.73;100710.72;6349138;28;20040;-71
2023/02/20 06:08:07;;;;;;;3.75;1.67;;;;;;;3.32;98.10;100715.72;6349267;28;20050;-71
2023/02/20 06:11:09;;;;;;;2.13;1.45;;;;;;;3.34;98.66;100716.53;6350440;28;20044;-71
2023/02/20 06:14:10;;;;;;;3.35;1.98;;;;;;;3.42;98.55;100712.91;6350522;28;20044;-71
2023/02/20 06:17:11;;;;;;;1.90;0.82;;;;;;;3.45;98.94;100719.72;6350309;28;20100;-76
2023/02/20 06:20:14;;;;;;;2.38;1.70;;;;;;;3.42;99.27;100718.06;6350313;28;20039;-77
2023/02/20 06:23:15;;;;;;;1.65;1.27;;;;;;;3.37;99.57;100711.28;6349038;28;20039;-77
2023/02/20 06:26:17;;;;;;;1.52;1.17;;;;;;;3.34;100.00;100716.53;6349010;28;20042;-77
2023/02/20 06:29:18;;;;;;;1.90;1.20;;;;;;;3.30;100.00;100705.41;6349877;28;20040;-77
2023/02/20 06:32:21;;;;;;;1.17;1.02;;;;;;;3.22;100.00;100717.63;6348907;28;20080;-77
2023/02/20 06:35:22;;;;;;;3.10;1.70;;;;;;;3.34;99.10;100719.97;6348560;28;20503;-78
2023/02/20 06:38:25;;;;;;;3.55;2.58;;;;;;;3.30;98.61;100709.75;6349759;28;20052;-78
2023/02/20 06:41:26;;;;;;;1.98;1.30;;;;;;;3.42;97.51;100709.47;6349851;28;20483;-78
2023/02/20 06:44:27;;;;;;;1.15;1.05;;;;;;;3.45;96.85;100722.31;6349736;28;20071;-78
2023/02/20 06:47:28;;;;;;;1.88;1.38;;;;;;;3.60;95.67;100722.00;6349648;28;20123;-78
2023/02/20 06:50:29;;;;;;;0.63;0.63;;;;;;;3.63;95.53;100719.34;6348372;28;20506;-78
2023/02/20 06:53:29;;;;;;;0.90;0.88;;;;;;;3.66;94.04;100710.66;6348389;28;20040;-78
2023/02/20 06:56:32;;;;;;;1.45;0.85;;;;;;;3.67;92.74;100711.53;6349449;28;20057;-78
2023/02/20 06:59:40;;;;;;;2.15;1.40;;;;;;;3.58;91.97;100712.56;6348319;28;20044;-78
2023/02/20 07:02:41;;;;;;;2.15;0.98;;;;;;;3.56;91.51;100717.78;6348151;28;20054;-78
2023/02/20 07:05:44;;;;;;;1.90;1.20;;;;;;;3.66;89.45;100730.47;6349577;28;20590;-78
2023/02/20 07:08:45;;;;;;;1.25;0.88;;;;;;;3.60;87.59;100734.91;6349158;28;20104;-78
2023/02/20 07:11:47;;;;;;;1.23;1.05;;;;;;;3.66;87.13;100735.63;6348034;28;20486;-78
2023/02/20 07:14:50;;;;;;;1.17;1.08;;;;;;;3.73;86.48;100732.06;6346844;28;20043;-78
2023/02/20 07:17:51;;;;;;;2.33;0.82;;;;;;;3.89;83.69;100736.00;6349040;28;20040;-73
2023/02/20 07:20:53;;;;;;;0.40;0.40;;;;;;;4.04;82.45;100727.88;6347681;28;20118;-73
2023/02/20 07:23:54;;;;;;;0.68;0.52;;;;;;;3.93;81.30;100729.00;6347629;28;20044;-73
2023/02/20 07:26:55;;;;;;;0.57;0.57;;;;;;;3.81;80.56;100733.56;6348751;28;20135;-73
2023/02/20 07:29:55;;;;;;;4.55;0.60;;;;;;;3.90;80.48;100729.09;6347215;28;20400;-73
2023/02/20 07:32:56;;;;;;;0.65;0.55;;;;;;;3.68;81.26;100736.44;6347483;28;20110;-73
2023/02/20 07:35:57;;;;;;;1.98;0.95;;;;;;;3.91;80.54;100731.66;6347170;28;20048;-73
2023/02/20 07:39:00;;;;;;;1.43;1.33;;;;;;;3.98;79.39;100728.03;6348472;28;20043;-72
2023/02/20 07:42:01;;;;;;;1.17;0.68;;;;;;;4.29;77.97;100737.63;6347201;28;20050;-73
2023/02/20 07:45:02;;;;;;;1.17;0.70;;;;;;;4.49;77.85;100733.69;6348334;28;20039;-73
2023/02/20 07:48:03;;;;;;;0.60;0.60;;;;;;;4.34;76.36;100730.59;6348198;28;20054;-73
2023/02/20 07:51:04;;;;;;;0.50;0.45;;;;;;;4.50;76.61;100731.09;6346907;28;20036;-78
2023/02/20 07:54:05;;;;;;;2.90;0.40;;;;;;;4.69;75.93;100736.63;6348231;28;20070;-78
2023/02/20 07:57:06;;;;;;;3.45;0.90;;;;;;;4.75;74.16;100741.63;6346757;28;20040;-78
2023/02/20 08:00:10;;;;;;;3.47;1.25;;;;;;;4.96;75.08;100741.97;6346683;28;20067;-78
2023/02/20 08:03:15;;;;;;;1.65;0.73;;;;;;;4.92;74.81;100738.63;6347937;28;20550;-78
2023/02/20 08:06:18;;;;;;;0.80;0.60;;;;;;;4.82;72.77;100748.38;6346621;28;20100;-78
2023/02/20 08:09:19;;;;;;;0.40;0.40;;;;;;;4.88;74.58;100756.84;6346287;28;20047;-78
2023/02/20 08:12:19;;;;;;;0.60;0.60;;;;;;;4.94;74.20;100739.44;6347614;28;20549;-78
2023/02/20 08:15:21;;;;;;;0.52;0.52;;;;;;;5.15;73.29;100730.25;6346425;28;20502;-78
2023/02/20 08:18:22;;;;;;;0.63;0.63;;;;;;;5.19;72.25;100733.59;6347796;28;20039;-78
2023/02/20 08:21:23;;;;;;;0.65;0.50;;;;;;;5.68;72.82;100733.91;6346173;28;20058;-78
2023/02/20 08:24:24;;;;;;;1.15;0.98;;;;;;;5.70;70.69;100748.50;6346911;28;20043;-78
2023/02/20 08:27:26;;;;;;;5.47;1.08;;;;;;;5.37;69.37;100745.16;6347288;28;20130;-78
2023/02/20 08:30:27;;;;;;;1.58;0.60;;;;;;;5.48;70.44;100737.06;6347199;28;20039;-78
2023/02/20 08:33:28;;;;;;;1.02;0.55;;;;;;;5.42;70.70;100712.25;6347270;28;20380;-78
2023/02/20 08:36:29;;;;;;;0.52;0.38;;;;;;;5.41;70.70;100707.94;6345690;28;20131;-78
2023/02/20 08:39:32;;;;;;;2.60;0.80;;;;;;;5.65;72.33;100707.22;6345753;28;20047;-78
2023/02/20 08:42:34;;;;;;;2.30;0.68;;;;;;;5.50;67.14;100709.41;6346916;28;20495;-78
2023/02/20 08:45:34;;;;;;;2.28;0.85;;;;;;;5.63;69.56;100723.69;6347933;27;20414;-78
2023/02/20 08:48:37;;;;;;;1.70;0.70;;;;;;;5.64;68.43;100721.06;6351723;27;20066;-78
2023/02/20 08:51:38;;;;;;;0.40;0.40;;;;;;;5.77;69.77;100697.41;6345119;28;20058;-78
2023/02/20 08:54:41;;;;;;;0.90;0.82;;;;;;;5.71;68.89;100682.88;6345853;28;20043;-78
2023/02/20 08:57:43;;;;;;;2.47;0.70;;;;;;;5.77;68.28;100687.03;6346895;28;20442;-78
2023/02/20 09:00:44;;;;;;;0.55;0.30;;;;;;;5.52;69.48;100679.16;6345389;28;20499;-78
2023/02/20 09:03:48;;;;;;;1.35;0.80;;;;;;;5.70;68.83;100673.41;6346779;28;20035;-78
2023/02/20 09:06:48;;;;;;;1.35;0.32;;;;;;;5.84;70.04;100685.94;6345561;28;20043;-78
2023/02/20 09:09:49;;;;;;;1.60;1.17;;;;;;;6.16;69.13;100687.53;6346613;28;20502;-78
2023/02/20 09:12:50;;;;;;;0.65;0.32;;;;;;;6.35;67.12;100692.13;6345483;28;20046;-79
2023/02/20 09:15:51;;;;;;;0.25;0.25;;;;;;;6.29;64.58;100693.16;6346386;28;20062;-78
2023/02/20 09:18:54;;;;;;;0.38;0.38;;;;;;;6.25;66.59;100701.94;6345308;28;20092;-78
2023/02/20 09:21:55;;;;;;;;;;;;;;;6.23;64.89;100693.34;6346798;28;20054;-78
2023/02/20 09:24:56;;;;;;;0.52;0.45;;;;;;;6.15;65.46;100674.63;6346321;28;19920;-78
2023/02/20 09:27:57;;;;;;;1.50;0.52;;;;;;;6.23;66.47;100668.28;6346275;28;20089;-78
2023/02/20 09:30:59;;;;;;;0.80;0.80;;;;;;;6.25;64.19;100668.25;6344846;28;20471;-78
2023/02/20 09:34:00;;;;;;;0.75;0.57;;;;;;;6.35;65.27;100661.00;6346197;28;20135;-78
2023/02/20 09:37:01;;;;;;;1.98;1.17;;;;;;;6.33;65.44;100655.03;6345451;28;20046;-79
2023/02/20 09:40:04;;;;;;;0.77;0.77;;;;;;;6.34;63.91;100651.53;6344687;28;20067;-73
2023/02/20 09:43:12;;;;;;;2.42;0.65;;;;;;;6.38;64.88;100658.31;6344584;28;20036;-73
2023/02/20 09:46:20;;;;;;;0.90;0.68;;;;;;;6.33;62.96;100637.72;6344505;28;20484;-78
2023/02/20 09:49:25;;;;;;;2.80;0.80;;;;;;;6.10;62.74;100635.91;6344394;28;20516;-72
2023/02/20 09:52:28;;;;;;;1.92;1.05;;;;;;;6.73;63.18;100644.09;6344550;28;20039;-72
2023/02/20 09:55:35;;;;;;;1.27;0.38;;;;;;;6.59;62.00;100639.44;6344469;28;20035;-73
2023/02/20 09:58:41;;;;;;;2.00;1.33;;;;;;;6.47;61.23;100639.84;6345631;28;20403;-73
2023/02/20 10:01:51;;;;;;;1.20;1.10;;;;;;;6.59;62.81;100644.63;6344302;28;20040;-79
2023/02/20 10:04:55;;;;;;;1.00;0.68;;;;;;;6.64;61.88;100644.44;6344529;28;20754;-79
2023/02/20 10:07:55;;;;;;;3.75;1.27;;;;;;;6.65;60.37;100641.81;6345997;28;20118;-77
2023/02/20 10:11:02;;;;;;;1.13;0.82;;;;;;;6.39;62.10;100639.28;6345424;28;20039;-78
2023/02/20 10:14:33;;;;;;;0.73;0.73;;;;;;;6.98;60.65;100640.63;6345590;28;20050;-77
2023/02/20 10:17:50;;;;;;;3.92;1.35;;;;;;;6.62;59.52;100631.53;6345513;28;20050;-77
2023/02/20 10:21:01;;;;;;;2.65;1.00;;;;;;;6.77;60.64;100635.31;6345176;28;20052;-77
2023/02/20 10:24:20;;;;;;;1.20;0.88;;;;;;;7.43;59.34;100626.81;6344155;28;20454;-72
2023/02/20 10:27:30;;;;;;;1.17;0.98;;;;;;;6.93;58.85;100617.44;6345046;28;20039;-72
2023/02/20 10:30:46;;;;;;;1.20;1.10;;;;;;;6.82;60.86;100612.66;6345461;28;20044;-77
2023/02/20 10:34:22;;;;;;;3.40;1.77;;;;;;;7.13;61.47;100602.91;6343965;28;20044;-77
2023/02/20 10:37:27;;;;;;;1.70;0.95;;;;;;;7.22;61.31;100593.00;6345142;28;20045;-72
2023/02/20 10:40:53;;;;;;;1.15;1.02;;;;;;;7.05;61.84;100598.84;6378658;27;20039;-72
2023/02/20 10:44:01;;;;;;;4.60;1.73;;;;;;;7.01;63.75;100604.19;6345072;28;20044;-71
2023/02/20 10:47:14;;;;;;;2.47;1.30;;;;;;;6.95;60.88;100604.44;6343933;28;20116;-71
2023/02/20 10:50:21;;;;;;;1.80;0.60;;;;;;;6.95;61.39;100604.44;6349386;28;20032;-71
2023/02/20 10:53:30;;;;;;;2.00;1.20;;;;;;;7.29;63.13;100590.16;6349739;28;20085;-77
2023/02/20 10:56:51;;;;;;;2.05;0.63;;;;;;;7.15;61.98;100578.56;6349519;28;20122;-77
2023/02/20 11:00:05;;;;;;;1.60;0.85;;;;;;;7.14;62.44;100557.88;6349333;28;20040;-71
2023/02/20 11:03:14;;;;;;;1.33;0.90;;;;;;;7.19;61.07;100567.16;6348081;28;20092;-78
2023/02/20 11:06:20;;;;;;;2.08;1.13;;;;;;;6.98;61.62;100553.28;6348025;28;20040;-77
2023/02/20 11:09:22;;;;;;;1.75;1.27;;;;;;;6.92;61.97;100550.06;6347886;28;20043;-77
2023/02/20 11:12:31;;;;;;;2.95;1.25;;;;;;;6.82;62.70;100539.19;6348981;28;20035;-78
2023/02/20 11:15:33;;;;;;;1.48;0.70;;;;;;;6.75;62.33;100525.59;6349043;28;20122;-77
2023/02/20 11:18:38;;;;;;;1.53;1.40;;;;;;;6.87;62.99;100519.09;6349008;28;20396;-77
2023/02/20 11:21:46;;;;;;;2.85;1.42;;;;;;;6.84;62.76;100506.25;6348810;27;20048;-77
2023/02/20 11:24:47;;;;;;;0.98;0.88;;;;;;;6.80;63.13;100508.13;6347647;28;20460;-77
2023/02/20 11:27:52;;;;;;;3.88;1.35;;;;;;;6.78;63.71;100503.91;6347452;28;20039;-77
2023/02/20 11:31:02;;;;;;;1.17;0.82;;;;;;;6.78;65.19;100496.97;6348955;28;20037;-77
2023/02/20 11:34:04;;;;;;;1.58;0.98;;;;;;;6.88;65.89;100506.97;6348375;28;20102;-77
2023/02/20 11:37:06;;;;;;;2.65;1.60;;;;;;;6.93;62.52;100492.09;6348582;28;20550;-77
2023/02/20 11:40:34;;;;;;;3.67;1.65;;;;;;;7.19;63.10;100507.47;6350628;27;20127;-72
2023/02/20 11:43:47;;;;;;;2.42;1.50;;;;;;;7.51;61.19;100505.31;6372600;27;20043;-77
2023/02/20 11:47:17;;;;;;;0.68;0.68;;;;;;;7.22;61.95;100507.34;6372114;27;20039;-71
2023/02/20 11:50:19;;;;;;;3.35;1.70;;;;;;;7.21;62.79;100500.47;6373601;27;20047;-72
2023/02/20 11:53:26;;;;;;;2.10;1.23;;;;;;;7.23;63.91;100501.25;6373506;27;20547;-78
2023/02/20 11:56:31;;;;;;;2.47;1.48;;;;;;;7.17;63.28;100498.06;6372237;27;20063;-71
2023/02/20 11:59:45;;;;;;;4.70;1.38;;;;;;;7.36;63.59;100490.38;6371766;27;20042;-78
2023/02/20 12:03:08;;;;;;;4.82;1.60;;;;;;;7.42;64.07;100490.97;6373369;27;20482;-77
2023/02/20 12:06:44;;;;;;;2.33;1.48;;;;;;;7.62;63.61;100490.16;6373435;27;20059;-77
2023/02/20 12:09:50;;;;;;;1.63;0.73;;;;;;;7.58;62.91;100485.16;6296286;27;20052;-78
2023/02/20 12:12:51;;;;;;;2.22;1.10;;;;;;;7.28;64.53;100471.69;6371866;27;20399;-72
2023/02/20 12:16:17;;;;;;;1.27;1.00;;;;;;;7.34;65.46;100471.44;6373108;27;20039;-71
2023/02/20 12:19:25;;;;;;;2.28;1.25;;;;;;;7.40;65.06;100466.81;6372958;27;20046;-71
2023/02/20 12:22:31;;;;;;;4.55;1.05;;;;;;;7.14;64.94;100465.28;6372806;27;20043;-71
2023/02/20 12:25:51;;;;;;;1.92;1.23;;;;;;;7.30;66.63;100451.69;6371558;27;20039;-72
2023/02/20 12:29:01;;;;;;;2.47;1.83;;;;;;;7.62;65.51;100459.00;6362210;27;20043;-72
2023/02/20 12:32:14;;;;;;;2.67;1.60;;;;;;;7.62;66.20;100451.19;6344161;28;20047;-72
2023/02/20 12:36:09;;;;;;;1.20;1.13;;;;;;;7.44;66.58;100431.19;6345493;28;20126;-71
2023/02/20 12:39:35;;;;;;;1.92;1.33;;;;;;;7.49;67.32;100431.00;6322394;28;20058;-71
2023/02/20 12:42:47;;;;;;;2.92;1.23;;;;;;;7.42;67.04;100435.63;6346876;28;20092;-71
2023/02/20 12:46:23;;;;;;;4.22;2.20;;;;;;;7.43;66.72;100434.69;6345769;28;20180;-72
2023/02/20 12:49:51;;;;;;;4.00;2.00;;;;;;;7.66;67.69;100428.53;6345466;28;20499;-72
2023/02/20 12:53:03;;;;;;;0.60;0.57;;;;;;;7.69;66.78;100417.16;6345407;28;20120;-71
2023/02/20 12:56:18;;;;;;;0.82;0.80;;;;;;;7.78;67.15;100411.56;6345636;28;20039;-71
2023/02/20 12:59:53;;;;;;;3.03;1.63;;;;;;;8.12;67.33;100408.31;6346580;28;20458;-71
2023/02/20 13:03:01;;;;;;;2.42;1.73;;;;;;;8.13;66.85;100403.97;6346740;28;20036;-71
2023/02/20 13:06:03;;;;;;;0.47;0.45;;;;;;;7.92;66.94;100387.59;6345580;28;20078;-73
2023/02/20 13:09:19;;;;;;;1.77;1.10;;;;;;;7.98;67.78;100389.91;6346632;28;20136;-72
2023/02/20 13:12:21;;;;;;;2.55;1.80;;;;;;;8.09;68.16;100398.03;6345310;28;20486;-72
2023/02/20 13:15:47;;;;;;;4.30;0.90;;;;;;;7.99;68.73;100387.25;6345128;28;20043;-72
2023/02/20 13:18:56;;;;;;;2.22;1.48;;;;;;;8.03;68.73;100383.59;6344854;28;20039;-72
2023/02/20 13:21:58;;;;;;;3.67;1.40;;;;;;;8.18;69.93;100381.22;6346217;28;20503;-72
2023/02/20 13:25:34;;;;;;;4.07;1.65;;;;;;;8.12;70.24;100384.94;6346352;28;20115;-71
2023/02/20 13:28:44;;;;;;;4.22;2.35;;;;;;;7.87;71.20;100373.03;6322392;28;20483;-77
2023/02/20 13:31:54;;;;;;;1.83;1.38;;;;;;;7.94;73.09;100377.97;6344916;28;20043;-77
2023/02/20 13:35:33;;;;;;;7.90;4.40;;;;;;;7.97;73.81;100364.81;6344205;28;20075;-77
2023/02/20 13:38:34;;;;;;;7.03;1.60;;;;;;;7.85;74.23;100363.63;6344795;28;20048;-77
2023/02/20 13:41:54;;;;;;;3.58;1.92;;;;;;;7.91;74.48;100354.69;6346179;28;20047;-77
2023/02/20 13:44:56;;;;;;;5.28;2.22;;;;;;;7.92;74.94;100354.63;6344642;28;20054;-77
2023/02/20 13:48:36;;;;;;;1.60;1.42;;;;;;;7.90;76.13;100376.41;6344635;28;20043;-77
2023/02/20 13:51:37;;;;;;;1.63;1.15;;;;;;;7.87;76.59;100372.19;6344342;28;20062;-71
2023/02/20 13:54:40;;;;;;;3.40;1.77;;;;;;;8.07;78.55;100372.16;6345760;28;20062;-72
2023/02/20 13:57:45;;;;;;;5.85;1.52;;;;;;;8.13;75.68;100359.78;6345596;28;20046;-71
2023/02/20 14:00:52;;;;;;;5.00;2.45;;;;;;;8.02;76.89;100365.47;6345598;28;20104;-71
2023/02/20 14:04:04;;;;;;;2.53;1.77;;;;;;;8.00;78.32;100377.69;6345575;28;20161;-77
2023/02/20 14:07:05;;;;;;;1.63;1.40;;;;;;;7.94;79.16;100365.81;6345583;28;20192;-78
2023/02/20 14:10:36;;;;;;;3.23;1.90;;;;;;;8.03;80.80;100372.34;6344237;28;20040;-71
2023/02/20 14:13:40;;;;;;;8.65;3.30;;;;;;;8.11;81.58;100349.44;6335781;28;20063;-71
2023/02/20 14:16:44;;;;;;;4.53;2.88;;;;;;;8.16;82.56;100339.69;6345367;28;20118;-71
2023/02/20 14:19:48;;;;;;;6.05;2.97;;;;;;;8.21;82.31;100342.91;6344298;28;20039;-71
2023/02/20 14:23:06;;;;;;;3.35;1.65;;;;;;;8.21;83.74;100344.66;6346242;28;20505;-72
2023/02/20 14:26:25;;;;;;;9.43;3.70;;;;;;;8.32;84.60;100337.22;6350249;28;20050;-77
2023/02/20 14:29:27;;;;;;;4.78;2.72;;;;;;;8.32;85.77;100338.97;6349195;28;20039;-77
2023/02/20 14:32:28;;;;;;;4.07;2.30;;;;;;;8.26;86.62;100332.31;6350060;28;20475;-77
2023/02/20 14:36:16;;;;;;;3.58;2.15;;;;;;;8.32;87.60;100334.63;6348615;28;20051;-71
2023/02/20 14:40:02;;;;;;;2.92;1.55;;;;;;;8.29;87.95;100334.75;6348774;28;20066;-77
2023/02/20 14:43:14;;;;;;;2.00;1.48;;;;;;;8.22;87.29;100325.56;6311232;28;20135;-72
2023/02/20 14:46:24;;;;;;;5.20;1.75;;;;;;;8.26;88.32;100303.72;6348569;28;20043;-72
2023/02/20 14:49:28;;;;;;;2.58;1.70;;;;;;;8.30;87.17;100305.25;6348304;28;20050;-72
2023/02/20 14:52:29;;;;;;;3.05;1.67;;;;;;;8.39;87.49;100302.19;6349600;28;20043;-71
2023/02/20 14:55:30;;;;;;;4.40;1.58;;;;;;;8.30;89.06;100288.78;6348269;28;20036;-72